Time;durP1;ratioP1;P1;durP2;ratioP2;P2;SDS_P1;SDS_P2;PMS_P1;PMS_P2;Temp;Humidity;BMP_temperature;BMP_pressure;BME280_temperature;BME280_humidity;BME280_pressure;Samples;Min_cycle;Max_cycle;Signal;HPM_P1;HPM_P2
2021/05/05 00:00:07;;;;;;;0.30;0.20;;;;;;;8.97;71.14;95576.25;5115671;28;20062;-79
2021/05/05 00:02:34;;;;;;;1.27;0.22;;;;;;;8.89;71.08;95587.63;5115856;28;20054;-79
2021/05/05 00:05:00;;;;;;;1.05;0.20;;;;;;;8.84;71.34;95582.22;5115734;28;20067;-78
2021/05/05 00:07:27;;;;;;;0.20;0.20;;;;;;;8.79;71.03;95579.38;5115795;28;20057;-78
2021/05/05 00:09:53;;;;;;;0.47;0.10;;;;;;;8.73;70.54;95569.78;5115666;28;20047;-78
2021/05/05 00:12:21;;;;;;;0.85;0.35;;;;;;;8.69;70.89;95581.56;5115553;28;20043;-79
2021/05/05 00:14:48;;;;;;;0.80;0.17;;;;;;;8.61;70.62;95583.31;5115246;28;20069;-79
2021/05/05 00:17:14;;;;;;;0.28;0.28;;;;;;;8.59;70.72;95579.31;5116102;28;20441;-79
2021/05/05 00:19:42;;;;;;;0.38;0.10;;;;;;;8.56;70.77;95574.53;5116133;28;20051;-78
2021/05/05 00:22:08;;;;;;;0.38;0.10;;;;;;;8.52;70.81;95573.31;5117597;28;20059;-79
2021/05/05 00:24:35;;;;;;;0.85;0.20;;;;;;;8.48;70.88;95572.88;5114978;28;20058;-78
2021/05/05 00:27:01;;;;;;;0.65;0.20;;;;;;;8.49;70.88;95568.50;5115037;28;20048;-78
2021/05/05 00:29:28;;;;;;;0.45;0.20;;;;;;;8.50;70.80;95562.28;5115270;28;20047;-79
2021/05/05 00:31:55;;;;;;;0.88;0.30;;;;;;;8.47;70.81;95558.28;5115388;28;20055;-79
2021/05/05 00:34:22;;;;;;;1.00;0.30;;;;;;;8.47;70.58;95558.28;5114627;28;20591;-79
2021/05/05 00:36:49;;;;;;;0.77;0.30;;;;;;;8.44;70.53;95556.88;5114738;28;20508;-79
2021/05/05 00:39:15;;;;;;;1.17;0.63;;;;;;;8.45;70.53;95555.09;5115075;28;20051;-79
2021/05/05 00:41:42;;;;;;;3.10;0.43;;;;;;;8.46;70.72;95548.88;5114066;28;20086;-79
2021/05/05 00:44:09;;;;;;;0.82;0.40;;;;;;;8.46;70.69;95541.06;5114745;28;20044;-78
2021/05/05 00:46:35;;;;;;;0.80;0.30;;;;;;;8.46;70.38;95533.28;5114962;28;20051;-79
2021/05/05 00:49:03;;;;;;;1.60;0.63;;;;;;;8.48;71.50;95518.28;5114957;28;20412;-79
2021/05/05 00:51:30;;;;;;;0.20;0.20;;;;;;;8.48;70.35;95510.50;5114649;28;20509;-79
2021/05/05 00:53:56;;;;;;;0.98;0.45;;;;;;;8.47;70.40;95531.50;5114552;28;20048;-78
2021/05/05 00:56:23;;;;;;;2.47;0.75;;;;;;;8.42;70.80;95537.28;5114710;28;20047;-79
2021/05/05 00:58:49;;;;;;;1.17;0.43;;;;;;;8.41;70.20;95538.28;5114320;28;20044;-79
2021/05/05 01:01:16;;;;;;;1.40;0.30;;;;;;;8.40;70.05;95550.47;5114499;28;20055;-79
2021/05/05 01:03:42;;;;;;;3.42;0.60;;;;;;;8.39;69.79;95548.03;5114231;27;20059;-78
2021/05/05 01:06:10;;;;;;;0.40;0.30;;;;;;;8.39;70.26;95556.63;5114858;28;20048;-79
2021/05/05 01:08:37;;;;;;;1.23;0.40;;;;;;;8.39;69.99;95548.81;5114339;28;20101;-79
2021/05/05 01:11:04;;;;;;;1.77;0.35;;;;;;;8.39;69.93;95540.22;5114312;28;20051;-79
2021/05/05 01:13:30;;;;;;;0.80;0.50;;;;;;;8.38;70.46;95536.03;5113865;28;20137;-79
2021/05/05 01:15:57;;;;;;;0.80;0.60;;;;;;;8.37;70.50;95550.00;5114440;28;20051;-79
2021/05/05 01:18:24;;;;;;;1.75;0.30;;;;;;;8.35;70.71;95532.03;5114428;28;20044;-79
2021/05/05 01:20:55;;;;;;;2.33;0.70;;;;;;;8.35;71.07;95536.41;5135815;28;20043;-79
2021/05/05 01:23:22;;;;;;;1.60;0.50;;;;;;;8.33;70.75;95539.22;5134617;28;20055;-79
2021/05/05 01:25:49;;;;;;;0.90;0.40;;;;;;;8.31;70.45;95532.59;5128344;28;20569;-78
2021/05/05 01:28:15;;;;;;;1.38;0.30;;;;;;;8.31;70.83;95536.00;5113780;28;20482;-78
2021/05/05 01:30:42;;;;;;;2.60;0.50;;;;;;;8.28;71.12;95536.38;5114218;28;20229;-79
2021/05/05 01:33:10;;;;;;;4.35;0.68;;;;;;;8.26;70.97;95540.97;5113759;28;20056;-79
2021/05/05 01:35:36;;;;;;;1.95;0.50;;;;;;;8.23;71.21;95531.78;5113977;28;20047;-79
2021/05/05 01:38:04;;;;;;;1.58;0.68;;;;;;;8.20;71.36;95521.78;5113985;28;20043;-78
2021/05/05 01:40:33;;;;;;;1.20;0.40;;;;;;;8.20;71.46;95513.19;5113931;28;20053;-79
2021/05/05 01:43:04;;;;;;;1.42;0.60;;;;;;;8.20;71.52;95497.59;5113670;28;20048;-79
2021/05/05 01:45:31;;;;;;;1.67;0.50;;;;;;;8.21;71.18;95510.38;5113782;28;20058;-79
2021/05/05 01:47:59;;;;;;;2.40;0.70;;;;;;;8.19;71.18;95495.97;5113518;28;20562;-79
2021/05/05 01:50:27;;;;;;;2.08;0.90;;;;;;;8.17;71.08;95496.16;5126253;28;20031;-79
2021/05/05 01:52:54;;;;;;;2.35;0.70;;;;;;;8.15;71.28;95495.56;5136441;28;20048;-79
2021/05/05 01:55:21;;;;;;;2.30;0.77;;;;;;;8.12;70.90;95488.16;5130581;28;20047;-78
2021/05/05 01:57:48;;;;;;;3.22;0.80;;;;;;;8.12;71.47;95472.56;5113349;28;20055;-79
2021/05/05 02:00:16;;;;;;;2.10;0.98;;;;;;;8.14;71.80;95477.59;5113698;28;20054;-79
2021/05/05 02:02:44;;;;;;;2.38;0.60;;;;;;;8.13;71.17;95486.38;5123865;28;20047;-79
2021/05/05 02:05:11;;;;;;;1.15;0.70;;;;;;;8.09;71.03;95490.34;5135916;28;20032;-79
2021/05/05 02:07:39;;;;;;;4.13;0.63;;;;;;;8.07;71.03;95495.75;5116755;28;20047;-78
2021/05/05 02:10:08;;;;;;;2.80;0.55;;;;;;;8.07;71.00;95498.34;5113517;28;20050;-79
2021/05/05 02:12:35;;;;;;;1.42;0.50;;;;;;;8.05;70.79;95495.94;5113334;28;20047;-78
2021/05/05 02:15:03;;;;;;;2.20;0.60;;;;;;;8.02;71.03;95479.91;5113415;28;20055;-78
2021/05/05 02:17:30;;;;;;;3.45;0.80;;;;;;;7.97;70.75;95482.31;5112962;28;20044;-79
2021/05/05 02:19:57;;;;;;;1.30;0.63;;;;;;;7.95;71.03;95486.88;5156060;22;20070;-86
2021/05/05 02:22:25;;;;;;;1.65;0.80;;;;;;;7.92;71.08;95490.66;5115199;28;20059;-85
2021/05/05 02:24:56;;;;;;;3.28;0.80;;;;;;;7.89;71.15;95488.44;5117393;28;20098;-89
2021/05/05 02:27:23;;;;;;;2.25;0.60;;;;;;;7.84;71.60;95489.03;5118404;28;20036;-88
2021/05/05 02:29:51;;;;;;;1.92;0.52;;;;;;;7.83;71.33;95481.44;5131765;28;20044;-89
2021/05/05 02:32:23;;;;;;;2.53;1.08;;;;;;;7.82;72.36;95478.03;5138327;28;20031;-90
2021/05/05 02:34:52;;;;;;;1.63;0.80;;;;;;;7.80;71.90;95471.44;5138357;28;20042;-90
2021/05/05 02:37:19;;;;;;;3.05;0.88;;;;;;;7.78;71.96;95474.22;5138086;28;20035;-90
2021/05/05 02:39:50;;;;;;;1.92;1.05;;;;;;;7.78;72.19;95478.59;5138315;28;20051;-87
2021/05/05 02:42:20;;;;;;;1.80;0.60;;;;;;;7.78;72.20;95482.03;5138895;28;20051;-90
2021/05/05 02:44:55;;;;;;;2.50;1.10;;;;;;;7.76;72.12;95475.38;5138452;28;20023;-90
2021/05/05 02:47:23;;;;;;;2.90;0.90;;;;;;;7.78;72.11;95481.19;5138135;28;20119;-90
2021/05/05 02:49:51;;;;;;;4.47;0.95;;;;;;;7.79;71.77;95481.00;5137868;28;20048;-90
2021/05/05 02:52:19;;;;;;;2.67;0.85;;;;;;;7.76;71.78;95471.03;5138341;28;20088;-89
2021/05/05 02:54:47;;;;;;;2.15;0.77;;;;;;;7.78;71.94;95483.78;5137981;28;20057;-88
2021/05/05 02:57:15;;;;;;;2.85;1.00;;;;;;;7.78;71.51;95482.03;5137944;28;20031;-89
2021/05/05 02:59:44;;;;;;;2.72;0.90;;;;;;;7.78;71.90;95478.59;5137582;28;20031;-89
2021/05/05 03:02:12;;;;;;;4.35;1.33;;;;;;;7.78;71.73;95487.22;5137049;28;20066;-89
2021/05/05 03:04:40;;;;;;;3.35;0.80;;;;;;;7.77;71.75;95483.00;5139927;28;20047;-89
2021/05/05 03:07:10;;;;;;;1.10;0.60;;;;;;;7.77;71.64;95475.22;5142075;28;20059;-90
2021/05/05 03:09:39;;;;;;;2.13;1.15;;;;;;;7.75;71.88;95468.63;5141442;28;20048;-89
2021/05/05 03:12:10;;;;;;;4.00;0.70;;;;;;;7.70;71.97;95476.19;5140803;28;20055;-87
2021/05/05 03:14:42;;;;;;;4.05;1.15;;;;;;;7.67;72.19;95482.53;5139688;28;20044;-88
2021/05/05 03:17:09;;;;;;;4.28;0.95;;;;;;;7.64;72.20;95494.09;5139200;28;20034;-86
2021/05/05 03:19:41;;;;;;;2.15;0.70;;;;;;;7.61;72.37;95498.88;5139070;28;20111;-89
2021/05/05 03:22:11;;;;;;;3.13;0.80;;;;;;;7.59;72.19;95506.06;5139181;28;20063;-89
2021/05/05 03:24:39;;;;;;;2.08;0.93;;;;;;;7.60;72.68;95492.06;5138393;28;20055;-85
2021/05/05 03:27:06;;;;;;;3.28;1.02;;;;;;;7.57;72.46;95482.09;5136878;28;20073;-84
2021/05/05 03:29:36;;;;;;;3.45;0.90;;;;;;;7.56;72.19;95488.25;5136581;28;20059;-85
2021/05/05 03:32:06;;;;;;;3.55;1.10;;;;;;;7.54;72.20;95483.28;5136951;28;20453;-84
2021/05/05 03:34:37;;;;;;;4.13;1.00;;;;;;;7.54;72.99;95467.72;5136124;28;20040;-85
2021/05/05 03:37:06;;;;;;;11.20;1.25;;;;;;;7.54;73.15;95479.84;5135408;28;20047;-88
2021/05/05 03:39:34;;;;;;;3.00;1.00;;;;;;;7.51;73.08;95462.88;5135444;28;20047;-86
2021/05/05 03:42:04;;;;;;;2.47;0.88;;;;;;;7.50;72.96;95469.06;5135341;28;20031;-84
2021/05/05 03:44:40;;;;;;;4.30;1.13;;;;;;;7.49;72.84;95474.44;5135836;28;20062;-82
2021/05/05 03:47:10;;;;;;;1.83;0.63;;;;;;;7.50;72.46;95456.09;5136313;28;20131;-89
2021/05/05 03:49:39;;;;;;;2.75;0.93;;;;;;;7.51;73.14;95462.09;5134455;28;20050;-85
2021/05/05 03:52:08;;;;;;;1.30;1.00;;;;;;;7.49;73.03;95459.66;5134524;28;20032;-87
2021/05/05 03:54:36;;;;;;;2.60;0.90;;;;;;;7.49;72.96;95469.25;5135253;28;20068;-88
2021/05/05 03:57:07;;;;;;;4.50;1.25;;;;;;;7.49;73.22;95464.84;5135583;28;20062;-85
2021/05/05 03:59:35;;;;;;;3.03;0.70;;;;;;;7.52;73.47;95458.47;5134996;28;20485;-86
2021/05/05 04:02:08;;;;;;;1.20;0.77;;;;;;;7.53;72.83;95460.09;5135123;28;20047;-83
2021/05/05 04:04:40;;;;;;;4.45;1.30;;;;;;;7.53;73.17;95457.50;5134387;28;20062;-85
2021/05/05 04:07:17;;;;;;;2.33;1.00;;;;;;;7.55;73.03;95455.53;5133231;28;20128;-86
2021/05/05 04:09:45;;;;;;;1.65;1.10;;;;;;;7.56;73.03;95449.34;5133320;28;20047;-83
2021/05/05 04:12:16;;;;;;;1.52;0.73;;;;;;;7.57;73.19;95459.53;5134754;28;20043;-90
2021/05/05 04:14:43;;;;;;;1.67;0.90;;;;;;;7.59;73.37;95457.53;5134534;28;20057;-84
2021/05/05 04:17:28;;;;;;;4.07;1.02;;;;;;;7.60;73.05;95460.94;5134531;28;20082;-84
2021/05/05 04:20:19;;;;;;;2.38;0.90;;;;;;;7.60;73.41;95460.94;5129511;28;20109;-85
2021/05/05 04:23:05;;;;;;;1.67;1.00;;;;;;;7.59;73.29;95460.13;5127147;28;20075;-84
2021/05/05 04:26:10;;;;;;;0.93;0.70;;;;;;;7.60;72.93;95458.34;5048692;28;20144;-86
2021/05/05 04:28:41;;;;;;;3.25;1.48;;;;;;;7.59;73.15;95464.53;5055878;28;20063;-87
2021/05/05 04:31:14;;;;;;;2.80;1.00;;;;;;;7.56;73.22;95464.91;5069230;28;20072;-85
2021/05/05 04:33:46;;;;;;;3.30;1.10;;;;;;;7.56;73.33;95475.28;5069148;28;20065;-83
2021/05/05 04:36:15;;;;;;;4.10;0.70;;;;;;;7.56;73.49;95483.06;5069014;28;20099;-82
2021/05/05 04:38:43;;;;;;;2.35;1.00;;;;;;;7.55;73.62;95484.06;5074178;28;20109;-86
2021/05/05 04:41:11;;;;;;;1.00;0.70;;;;;;;7.53;73.25;95484.25;5078409;28;20072;-91
2021/05/05 04:43:42;;;;;;;1.38;0.80;;;;;;;7.51;73.78;95470.66;5077990;28;20037;-89
2021/05/05 04:46:09;;;;;;;1.02;0.75;;;;;;;7.52;73.42;95479.25;5078002;28;20307;-89
2021/05/05 04:48:41;;;;;;;2.38;0.90;;;;;;;7.49;73.69;95485.63;5076630;28;20029;-86
2021/05/05 04:51:09;;;;;;;1.27;0.80;;;;;;;7.50;73.28;95491.59;5109584;28;20075;-92
2021/05/05 04:53:38;;;;;;;3.85;1.05;;;;;;;7.50;73.83;95497.63;5110986;28;20268;-90
2021/05/05 04:56:13;;;;;;;1.92;0.80;;;;;;;7.50;73.35;95502.81;5116843;28;20028;-86
2021/05/05 04:58:48;;;;;;;2.15;0.98;;;;;;;7.50;73.54;95512.38;5113073;28;20042;-89
2021/05/05 05:01:23;;;;;;;3.53;0.88;;;;;;;7.45;73.40;95519.91;5106585;28;20074;-89
2021/05/05 05:04:13;;;;;;;1.98;0.80;;;;;;;7.41;73.21;95532.47;5106420;28;20540;-89
2021/05/05 05:06:54;;;;;;;1.83;0.70;;;;;;;7.38;73.60;95528.44;5106325;28;20409;-88
2021/05/05 05:09:27;;;;;;;1.35;0.90;;;;;;;7.34;73.46;95544.59;5104817;28;20052;-87
2021/05/05 05:12:07;;;;;;;2.42;0.60;;;;;;;7.33;73.35;95546.38;5113411;28;20082;-86
2021/05/05 05:15:00;;;;;;;1.48;0.70;;;;;;;7.34;73.25;95547.19;5131245;28;20044;-87
2021/05/05 05:17:51;;;;;;;1.42;0.77;;;;;;;7.35;72.99;95552.19;5118019;28;20062;-88
2021/05/05 05:20:37;;;;;;;1.45;1.10;;;;;;;7.31;73.52;95556.13;5125021;28;20051;-85
2021/05/05 05:23:12;;;;;;;0.90;0.45;;;;;;;7.31;73.08;95557.94;5125396;28;20051;-86
2021/05/05 05:25:59;;;;;;;1.05;0.60;;;;;;;7.29;73.07;95563.31;5127784;28;20496;-90
2021/05/05 05:28:41;;;;;;;5.78;1.00;;;;;;;7.30;72.99;95577.06;5124538;28;20051;-83
2021/05/05 05:31:13;;;;;;;1.45;0.70;;;;;;;7.26;72.90;95581.84;5110543;28;20067;-83
2021/05/05 05:33:43;;;;;;;0.73;0.65;;;;;;;7.25;72.90;95593.19;5104850;28;20048;-88
2021/05/05 05:36:18;;;;;;;1.25;0.73;;;;;;;7.27;72.80;95596.41;5106740;28;20101;-87
2021/05/05 05:38:48;;;;;;;1.85;1.08;;;;;;;7.28;72.98;95611.00;5112104;28;20051;-90
2021/05/05 05:41:15;;;;;;;0.98;0.60;;;;;;;7.29;72.78;95610.00;5117091;28;20039;-85
2021/05/05 05:43:46;;;;;;;1.75;0.82;;;;;;;7.30;72.73;95605.59;5115336;28;20054;-83
2021/05/05 05:46:16;;;;;;;2.70;0.75;;;;;;;7.32;72.77;95601.81;5111519;28;20048;-87
2021/05/05 05:48:44;;;;;;;2.17;1.10;;;;;;;7.32;72.30;95608.81;5116624;28;20044;-86
2021/05/05 05:51:11;;;;;;;2.45;1.33;;;;;;;7.29;72.16;95610.00;5109270;28;20055;-81
2021/05/05 05:53:38;;;;;;;1.27;1.10;;;;;;;7.29;72.65;95604.00;5102109;28;20055;-87
2021/05/05 05:56:06;;;;;;;2.92;1.00;;;;;;;7.29;72.00;95604.00;5100914;28;20054;-77
2021/05/05 05:58:33;;;;;;;1.92;0.85;;;;;;;7.29;72.09;95593.63;5107131;28;20058;-85
2021/05/05 06:01:01;;;;;;;2.63;0.95;;;;;;;7.27;71.58;95586.03;5109110;28;20075;-80
2021/05/05 06:03:29;;;;;;;1.73;0.95;;;;;;;7.27;72.04;95590.41;5104818;28;20138;-83
2021/05/05 06:05:56;;;;;;;2.28;1.50;;;;;;;7.28;72.30;95585.06;5119001;28;20062;-87
2021/05/05 06:08:23;;;;;;;1.88;1.00;;;;;;;7.36;71.81;95581.50;5121386;28;20111;-85
2021/05/05 06:10:53;;;;;;;2.17;1.02;;;;;;;7.40;71.17;95583.56;5122007;28;20467;-84
2021/05/05 06:13:20;;;;;;;1.77;1.00;;;;;;;7.41;71.17;95564.41;5124888;28;20051;-86
2021/05/05 06:15:47;;;;;;;3.08;1.40;;;;;;;7.46;70.21;95573.44;5124089;28;20052;-86
2021/05/05 06:18:14;;;;;;;4.00;1.55;;;;;;;7.48;70.36;95584.41;5126653;28;20044;-85
2021/05/05 06:20:47;;;;;;;3.00;0.85;;;;;;;7.51;70.68;95597.81;5115350;28;20052;-85
2021/05/05 06:23:17;;;;;;;;;;;;;;;7.59;70.40;95615.84;5124867;28;20047;-87
2021/05/05 06:25:45;;;;;;;3.45;1.33;;;;;;;7.67;70.89;95609.72;5124921;28;19950;-87
2021/05/05 06:28:12;;;;;;;5.40;1.55;;;;;;;7.72;70.28;95612.56;5122463;28;20063;-86
2021/05/05 06:30:43;;;;;;;2.55;1.17;;;;;;;7.73;69.80;95614.16;5126903;28;20066;-88
2021/05/05 06:33:11;;;;;;;4.15;1.00;;;;;;;7.72;69.50;95622.97;5124955;28;20055;-86
2021/05/05 06:35:45;;;;;;;9.02;1.40;;;;;;;7.72;69.62;95620.34;5123675;28;20067;-89
2021/05/05 06:38:15;;;;;;;1.85;1.10;;;;;;;7.71;69.72;95626.53;5124987;28;20044;-88
2021/05/05 06:40:43;;;;;;;2.88;1.23;;;;;;;7.76;69.61;95642.34;5129388;28;20111;-89
2021/05/05 06:43:10;;;;;;;5.43;1.48;;;;;;;7.78;69.86;95645.56;5128644;28;20151;-89
2021/05/05 06:45:37;;;;;;;2.50;1.02;;;;;;;7.78;69.93;95635.19;5130065;28;20060;-87
2021/05/05 06:48:05;;;;;;;1.90;1.15;;;;;;;7.80;69.96;95638.38;5128060;28;20133;-87
2021/05/05 06:50:32;;;;;;;3.17;1.17;;;;;;;7.83;70.34;95647.59;5125216;28;20056;-87
2021/05/05 06:52:59;;;;;;;2.67;0.75;;;;;;;7.84;70.51;95638.81;5107540;28;20412;-86
2021/05/05 06:55:26;;;;;;;2.30;1.20;;;;;;;7.86;70.87;95642.03;5108172;28;20055;-86
2021/05/05 06:57:53;;;;;;;2.70;1.00;;;;;;;7.87;70.63;95653.19;5107114;28;20040;-88
2021/05/05 07:00:20;;;;;;;8.82;1.63;;;;;;;7.87;70.54;95661.00;5119068;28;20060;-86
2021/05/05 07:02:47;;;;;;;3.13;0.73;;;;;;;7.88;70.67;95654.81;5126352;28;20044;-82
2021/05/05 07:05:15;;;;;;;1.02;0.63;;;;;;;7.91;70.92;95654.44;5125222;28;20046;-80
2021/05/05 07:07:46;;;;;;;1.58;0.90;;;;;;;7.94;70.59;95654.09;5121379;28;20104;-79
2021/05/05 07:10:13;;;;;;;1.58;0.70;;;;;;;7.99;70.93;95646.53;5121066;28;20056;-83
2021/05/05 07:12:40;;;;;;;1.83;1.00;;;;;;;8.01;71.05;95654.94;5108615;28;20510;-79
2021/05/05 07:15:10;;;;;;;2.30;0.88;;;;;;;8.03;71.11;95663.34;5106947;28;20082;-90
2021/05/05 07:17:40;;;;;;;1.15;1.05;;;;;;;8.05;70.69;95656.94;5096303;28;20044;-85
2021/05/05 07:20:14;;;;;;;1.25;0.70;;;;;;;8.06;70.45;95652.56;5133231;28;20081;-85
2021/05/05 07:22:42;;;;;;;3.35;1.20;;;;;;;8.08;70.48;95660.97;5121049;28;20048;-80
2021/05/05 07:25:15;;;;;;;3.28;1.30;;;;;;;8.08;69.85;95655.78;5120645;28;20088;-79
2021/05/05 07:27:51;;;;;;;1.05;0.90;;;;;;;8.12;69.54;95670.00;5115433;28;20056;-90
2021/05/05 07:30:20;;;;;;;2.05;0.80;;;;;;;8.15;69.04;95661.81;5115974;28;20430;-89
2021/05/05 07:32:52;;;;;;;3.30;1.00;;;;;;;8.20;69.40;95664.66;5111840;28;20107;-85
2021/05/05 07:35:22;;;;;;;2.40;1.20;;;;;;;8.23;69.13;95664.25;5113835;28;20047;-90
2021/05/05 07:38:17;;;;;;;1.10;0.75;;;;;;;8.21;68.29;95671.44;5112193;28;20068;-85
2021/05/05 07:41:22;;;;;;;1.88;0.90;;;;;;;8.20;68.70;95664.66;5108787;28;20048;-86
2021/05/05 07:46:45;;;;;;;2.40;1.17;;;;;;;8.17;67.75;95670.22;5109441;28;20054;-89
2021/05/05 07:49:15;;;;;;;10.02;1.70;;;;;;;8.17;67.19;95675.41;5105278;28;20052;-83
2021/05/05 07:51:42;;;;;;;1.77;1.10;;;;;;;8.18;67.29;95676.22;5108583;28;20070;-85
2021/05/05 07:54:09;;;;;;;3.65;1.17;;;;;;;8.18;67.48;95666.63;5128522;28;20079;-82
2021/05/05 07:56:36;;;;;;;6.50;1.75;;;;;;;8.20;67.10;95677.66;5127571;28;20071;-86
2021/05/05 07:59:02;;;;;;;2.25;0.93;;;;;;;8.24;67.16;95686.66;5125705;28;20040;-84
2021/05/05 08:01:30;;;;;;;2.30;0.90;;;;;;;8.25;66.64;95685.66;5125616;28;20078;-86
2021/05/05 08:03:59;;;;;;;3.22;1.00;;;;;;;8.29;66.98;95685.28;5112413;28;20048;-84
2021/05/05 08:06:28;;;;;;;3.55;1.08;;;;;;;8.37;66.21;95691.13;5105666;28;20048;-85
2021/05/05 08:08:55;;;;;;;4.65;1.98;;;;;;;8.44;66.56;95696.44;5124087;28;20044;-84
2021/05/05 08:11:22;;;;;;;1.27;1.17;;;;;;;8.53;64.77;95690.09;5125211;28;20054;-84
2021/05/05 08:13:52;;;;;;;2.85;1.40;;;;;;;8.66;62.76;95689.34;5125487;28;20063;-84
2021/05/05 08:16:20;;;;;;;4.97;1.80;;;;;;;8.71;62.29;95699.19;5126316;28;20051;-88
2021/05/05 08:18:49;;;;;;;5.85;1.70;;;;;;;8.74;62.04;95683.19;5122248;28;20078;-82
2021/05/05 08:21:17;;;;;;;4.43;1.40;;;;;;;8.76;61.96;95689.00;5103532;28;20044;-84
2021/05/05 08:23:44;;;;;;;5.68;1.20;;;;;;;8.77;61.87;95694.00;5113442;28;20062;-81
2021/05/05 08:26:12;;;;;;;2.47;1.17;;;;;;;8.75;62.28;95692.59;5122707;28;20071;-88
2021/05/05 08:28:39;;;;;;;3.38;1.00;;;;;;;8.75;63.13;95701.19;5122801;28;20052;-87
2021/05/05 08:31:07;;;;;;;6.15;1.40;;;;;;;8.80;63.01;95700.63;5120908;28;20043;-87
2021/05/05 08:33:35;;;;;;;4.50;1.73;;;;;;;8.86;63.00;95700.66;5123588;28;20099;-87
2021/05/05 08:36:02;;;;;;;4.68;1.73;;;;;;;8.87;63.03;95707.44;5128853;28;20112;-88
2021/05/05 08:38:40;;;;;;;4.28;1.42;;;;;;;8.95;63.42;95711.69;5134682;28;20039;-89
2021/05/05 08:41:13;;;;;;;4.15;1.27;;;;;;;8.97;61.54;95722.72;5139140;28;20105;-91
2021/05/05 08:43:47;;;;;;;3.95;1.40;;;;;;;8.87;59.23;95709.25;5138713;28;20044;-89
2021/05/05 08:46:22;;;;;;;2.60;1.25;;;;;;;8.77;58.94;95721.81;5139816;28;20069;-90
2021/05/05 08:49:06;;;;;;;4.05;1.42;;;;;;;8.69;58.32;95719.38;5139379;28;20055;-88
2021/05/05 08:54:53;;;;;;;3.53;1.40;;;;;;;8.71;57.70;95720.78;5103111;28;20020;-91
2021/05/05 08:57:23;;;;;;;4.32;1.48;;;;;;;8.81;57.12;95720.41;5135049;28;20039;-87
2021/05/05 09:00:09;;;;;;;3.92;1.23;;;;;;;8.98;57.70;95724.31;5121354;28;20035;-89
2021/05/05 09:03:04;;;;;;;2.60;1.20;;;;;;;9.18;55.67;95714.00;5135354;28;20067;-86
2021/05/05 09:06:31;;;;;;;8.00;1.77;;;;;;;9.41;54.20;95718.09;5130752;28;20116;-89
2021/05/05 09:09:22;;;;;;;2.70;1.05;;;;;;;9.62;54.65;95720.53;5029933;28;20533;-89
2021/05/05 09:22:57;;;;;;;3.35;1.10;;;;;;;10.05;48.82;95727.19;5113735;28;20116;-89
2021/05/05 09:25:53;;;;;;;3.45;1.27;;;;;;;10.13;47.95;95737.44;5114377;28;20048;-89
2021/05/05 09:28:44;;;;;;;4.35;1.10;;;;;;;10.23;48.18;95748.28;5116040;28;20040;-87
2021/05/05 09:31:24;;;;;;;4.65;1.02;;;;;;;10.36;49.00;95767.53;5128911;28;20055;-87
2021/05/05 09:34:20;;;;;;;4.18;1.90;;;;;;;10.45;49.52;95745.47;5136849;28;20039;-86
2021/05/05 09:37:10;;;;;;;4.95;1.00;;;;;;;10.54;47.35;95765.16;5138891;28;20035;-86
2021/05/05 09:39:57;;;;;;;2.30;1.02;;;;;;;10.59;47.71;95754.91;5136911;28;20058;-84
2021/05/05 09:42:40;;;;;;;2.13;1.10;;;;;;;10.65;48.25;95746.28;5122739;28;20060;-86
2021/05/05 09:45:35;;;;;;;1.30;0.95;;;;;;;10.68;45.39;95753.69;5115665;28;20038;-86
2021/05/05 09:48:16;;;;;;;4.00;0.95;;;;;;;10.70;46.07;95754.28;5116917;28;20028;-85
2021/05/05 09:50:45;;;;;;;3.95;1.20;;;;;;;10.68;45.55;95756.28;5111123;28;20064;-85
2021/05/05 09:56:20;;;;;;;4.15;1.27;;;;;;;10.77;44.27;95730.00;5115116;28;20036;-87
2021/05/05 09:59:15;;;;;;;2.78;1.00;;;;;;;10.84;44.22;95738.59;5122386;28;20065;-86
2021/05/05 10:02:25;;;;;;;3.13;0.98;;;;;;;10.89;45.12;95739.59;5125965;28;20044;-87
2021/05/05 10:05:35;;;;;;;1.90;1.20;;;;;;;11.01;45.37;95755.41;5108696;28;20095;-89
2021/05/05 10:08:38;;;;;;;3.65;1.02;;;;;;;11.00;45.34;95748.63;5117745;28;20071;-89
2021/05/05 10:11:15;;;;;;;3.53;1.50;;;;;;;11.00;45.49;95748.63;5117959;28;20056;-88
2021/05/05 10:14:16;;;;;;;3.40;1.52;;;;;;;11.05;44.01;95759.22;5125309;28;20051;-89
2021/05/05 10:17:07;;;;;;;2.97;0.82;;;;;;;11.09;45.04;95742.16;5138204;28;20039;-87
2021/05/05 10:19:41;;;;;;;4.50;1.35;;;;;;;11.16;44.89;95747.34;5135992;28;20060;-89
2021/05/05 10:22:32;;;;;;;;;;;;;;;;;;;;;
2021/05/05 10:25:40;;;;;;;6.90;1.10;;;;;;;11.08;43.24;95735.31;5126795;28;20081;-90
2021/05/05 10:28:15;;;;;;;4.43;1.60;;;;;;;11.12;45.04;95731.28;5134806;28;20081;-89
2021/05/05 10:30:48;;;;;;;2.63;1.20;;;;;;;11.24;43.39;95722.81;5134844;28;20059;-87
2021/05/05 10:33:41;;;;;;;3.35;1.40;;;;;;;11.28;41.87;95737.06;5137169;28;20055;-87
2021/05/05 10:36:43;;;;;;;3.67;1.48;;;;;;;11.23;41.96;95745.50;5136610;28;20106;-89
2021/05/05 10:40:07;;;;;;;2.70;1.17;;;;;;;11.17;41.86;95774.25;5136931;28;20057;-89
2021/05/05 10:42:49;;;;;;;4.43;1.02;;;;;;;11.08;42.74;95760.63;5134769;28;20081;-90
2021/05/05 10:45:36;;;;;;;3.50;1.23;;;;;;;11.12;43.46;95757.38;5137433;28;20035;-88
2021/05/05 10:48:11;;;;;;;3.33;1.00;;;;;;;11.28;43.00;95760.56;5138041;28;20035;-87
2021/05/05 10:51:02;;;;;;;5.15;2.15;;;;;;;11.41;43.91;95770.16;5137854;28;20055;-86
2021/05/05 10:53:51;;;;;;;3.05;1.58;;;;;;;11.52;42.23;95770.31;5102341;28;20033;-89
2021/05/05 10:56:23;;;;;;;4.72;1.52;;;;;;;11.54;42.59;95770.09;5117485;28;20040;-90
2021/05/05 10:59:00;;;;;;;2.17;0.95;;;;;;;11.59;40.49;95767.69;5117441;28;20055;-90
2021/05/05 11:01:45;;;;;;;3.70;1.27;;;;;;;11.64;42.26;95783.53;5117991;28;20070;-84
2021/05/05 11:04:33;;;;;;;2.10;1.05;;;;;;;11.72;41.96;95775.44;5116011;28;20059;-89
2021/05/05 11:07:14;;;;;;;3.55;1.30;;;;;;;11.87;43.40;95788.25;5115800;28;20043;-92
2021/05/05 11:09:47;;;;;;;2.03;1.05;;;;;;;12.02;40.96;95798.41;5107085;28;20052;-90
2021/05/05 11:12:46;;;;;;;2.30;1.10;;;;;;;12.02;41.17;95784.56;5106702;28;20516;-89
2021/05/05 11:15:15;;;;;;;2.20;1.25;;;;;;;11.99;39.83;95787.59;5103762;28;20048;-88
2021/05/05 11:17:42;;;;;;;2.30;1.20;;;;;;;11.96;40.69;95788.81;5104395;28;20043;-89
2021/05/05 11:20:30;;;;;;;2.25;0.75;;;;;;;12.03;39.17;95788.78;5103996;28;20050;-89
2021/05/05 11:22:57;;;;;;;1.50;1.00;;;;;;;12.16;40.57;95789.50;5104054;28;20081;-89
2021/05/05 11:25:28;;;;;;;2.33;0.70;;;;;;;12.27;39.59;95785.41;5106656;28;20548;-87
2021/05/05 11:28:00;;;;;;;2.15;0.73;;;;;;;12.31;39.59;95791.00;5106165;28;20079;-90
2021/05/05 11:30:49;;;;;;;2.20;0.80;;;;;;;12.32;38.34;95801.25;5114729;28;20047;-88
2021/05/05 11:33:16;;;;;;;1.98;0.80;;;;;;;12.29;39.13;95809.53;5126275;28;20126;-89
2021/05/05 11:35:44;;;;;;;2.75;0.90;;;;;;;12.10;39.07;95842.63;5128060;28;20054;-87
2021/05/05 11:38:26;;;;;;;5.25;0.32;;;;;;;11.64;45.17;95895.06;5115641;28;20543;-90
2021/05/05 11:40:59;;;;;;;1.97;0.20;;;;;;;10.79;48.66;95939.28;5108731;28;20062;-86
2021/05/05 11:43:28;;;;;;;0.10;0.10;;;;;;;10.20;50.06;95959.78;5108874;28;20348;-88
2021/05/05 11:45:59;;;;;;;0.40;0.10;;;;;;;9.70;52.51;95967.75;5113230;28;20039;-87
2021/05/05 11:48:36;;;;;;;0.38;0.20;;;;;;;9.29;53.94;95972.88;5127186;28;20055;-87
2021/05/05 11:51:22;;;;;;;1.25;0.20;;;;;;;8.96;55.78;95986.41;5129503;28;20050;-88
2021/05/05 11:53:53;;;;;;;0.90;0.57;;;;;;;8.70;56.05;95996.56;5120507;28;20063;-88
2021/05/05 11:56:23;;;;;;;1.45;1.08;;;;;;;8.42;56.14;96005.09;5125819;28;20032;-90
2021/05/05 11:59:00;;;;;;;1.83;0.95;;;;;;;8.12;57.73;96014.69;5140481;28;20112;-88
2021/05/05 12:01:39;;;;;;;2.20;1.10;;;;;;;7.90;58.67;96027.56;5141379;28;20031;-89
2021/05/05 12:04:23;;;;;;;0.52;0.47;;;;;;;7.74;58.60;96033.75;5130724;28;20042;-87
2021/05/05 12:07:18;;;;;;;2.33;0.85;;;;;;;7.46;59.09;96040.50;5138785;28;20040;-88
2021/05/05 12:10:24;;;;;;;2.38;1.08;;;;;;;7.20;59.25;96026.91;5138985;28;20063;-89
2021/05/05 12:13:19;;;;;;;1.52;0.90;;;;;;;7.06;61.33;96017.28;5140172;27;20052;-87
2021/05/05 12:15:59;;;;;;;2.17;0.80;;;;;;;7.04;60.57;96010.66;5140351;28;20028;-89
2021/05/05 12:18:50;;;;;;;0.80;0.55;;;;;;;7.06;60.84;96019.09;5139674;28;20036;-91
2021/05/05 12:21:32;;;;;;;1.17;0.80;;;;;;;7.11;60.87;96027.97;5139051;28;20053;-90
2021/05/05 12:24:16;;;;;;;3.15;0.70;;;;;;;7.17;61.30;96013.47;5139692;28;20054;-92
2021/05/05 12:27:25;;;;;;;1.63;0.90;;;;;;;7.30;61.86;96008.50;5139992;28;20032;-87
2021/05/05 12:30:19;;;;;;;1.42;0.85;;;;;;;7.57;61.67;96004.53;5139524;28;20039;-91
2021/05/05 12:33:23;;;;;;;0.75;0.70;;;;;;;7.79;60.91;96020.22;5137578;28;20051;-91